Time;durP1;ratioP1;P1;durP2;ratioP2;P2;SDS_P1;SDS_P2;PMS_P1;PMS_P2;Temp;Humidity;BMP_temperature;BMP_pressure;BME280_temperature;BME280_humidity;BME280_pressure;Samples;Min_cycle;Max_cycle;Signal;HPM_P1;HPM_P2
2022/08/16 00:01:57;;;;;;;10.67;9.57;;;17.60;99.90;;;;;;8356699;28;20288;-68
2022/08/16 00:05:58;;;;;;;14.13;9.70;;;17.60;99.90;;;;;;8349977;28;20193;-68
2022/08/16 00:09:58;;;;;;;9.83;8.63;;;17.60;99.90;;;;;;8346656;28;20212;-68
2022/08/16 00:14:00;;;;;;;9.47;8.47;;;17.60;99.90;;;;;;8349819;28;20217;-68
2022/08/16 00:18:01;;;;;;;10.10;9.10;;;17.60;99.90;;;;;;8350371;28;20238;-68
2022/08/16 00:22:02;;;;;;;10.60;8.90;;;17.60;99.90;;;;;;8347009;28;20216;-68
2022/08/16 00:26:03;;;;;;;9.03;8.10;;;17.60;99.90;;;;;;8349718;28;20220;-68
2022/08/16 00:30:06;;;;;;;9.50;8.30;;;17.50;99.90;;;;;;8348257;28;20192;-68
2022/08/16 00:34:07;;;;;;;8.50;7.13;;;17.50;99.90;;;;;;8346568;28;20233;-68
2022/08/16 00:38:08;;;;;;;9.97;8.97;;;17.40;99.90;;;;;;8347395;28;20190;-68
2022/08/16 00:42:09;;;;;;;8.97;7.73;;;17.40;99.90;;;;;;8348652;28;20188;-68
2022/08/16 00:46:26;;;;;;;9.77;8.77;;;17.30;99.90;;;;;;8348185;28;20192;-68
2022/08/16 00:50:29;;;;;;;8.90;7.90;;;17.30;99.90;;;;;;8345479;28;20591;-68
2022/08/16 00:54:31;;;;;;;11.67;7.50;;;17.30;99.90;;;;;;8351123;28;20228;-68
2022/08/16 00:58:34;;;;;;;7.63;6.70;;;17.20;99.90;;;;;;8347550;28;20185;-68
2022/08/16 01:02:35;;;;;;;7.57;6.60;;;17.10;99.90;;;;;;8346089;28;20221;-68
2022/08/16 01:06:38;;;;;;;7.93;6.37;;;16.90;99.90;;;;;;8340772;28;20185;-68
2022/08/16 01:10:40;;;;;;;7.10;6.40;;;16.90;99.90;;;;;;8345545;28;20182;-68
2022/08/16 01:14:46;;;;;;;7.00;6.23;;;16.70;99.90;;;;;;8359959;28;20286;-68
2022/08/16 01:18:51;;;;;;;8.90;7.73;;;16.70;99.90;;;;;;8347576;28;20225;-68
2022/08/16 01:23:04;;;;;;;9.27;8.17;;;16.70;99.90;;;;;;8352143;28;20190;-68
2022/08/16 01:27:13;;;;;;;8.90;8.00;;;16.90;99.90;;;;;;8354097;28;20189;-68
2022/08/16 01:31:17;;;;;;;9.07;8.17;;;17.00;99.90;;;;;;8383291;28;20190;-68
2022/08/16 01:35:50;;;;;;;9.43;8.43;;;17.10;99.90;;;;;;8353624;28;20637;-68
2022/08/16 01:39:51;;;;;;;8.97;8.17;;;17.30;99.90;;;;;;8347730;28;20205;-67
2022/08/16 01:43:53;;;;;;;8.90;7.37;;;17.40;99.90;;;;;;8352226;28;20213;-68
2022/08/16 01:47:54;;;;;;;9.67;7.83;;;17.40;99.90;;;;;;8352159;28;20186;-68
2022/08/16 01:51:58;;;;;;;9.60;8.33;;;17.50;99.90;;;;;;8349958;28;20328;-68
2022/08/16 01:55:59;;;;;;;8.67;7.77;;;17.40;99.90;;;;;;8382173;28;20316;-68
2022/08/16 02:00:00;;;;;;;9.23;8.00;;;17.50;99.90;;;;;;8353654;28;20197;-68
2022/08/16 02:04:02;;;;;;;6.77;6.17;;;17.40;99.90;;;;;;8350697;28;20194;-68
2022/08/16 02:08:03;;;;;;;6.77;6.17;;;17.30;99.90;;;;;;8353004;28;20186;-68
2022/08/16 02:12:07;;;;;;;7.07;6.47;;;17.20;99.90;;;;;;8351560;28;20209;-68
2022/08/16 02:16:09;;;;;;;6.77;6.17;;;17.10;99.90;;;;;;8349893;28;20259;-68
2022/08/16 02:20:11;;;;;;;8.43;6.80;;;17.10;99.90;;;;;;8353058;28;20225;-68
2022/08/16 02:24:11;;;;;;;7.93;7.17;;;17.00;99.90;;;;;;8352476;28;20202;-68
2022/08/16 02:28:13;;;;;;;7.67;6.83;;;17.00;99.90;;;;;;8349176;28;20189;-68
2022/08/16 02:32:15;;;;;;;8.27;7.47;;;17.00;99.90;;;;;;8350353;28;20280;-68
2022/08/16 02:36:16;;;;;;;8.80;7.70;;;17.00;99.90;;;;;;8349286;28;20213;-68
2022/08/16 02:40:17;;;;;;;9.10;7.57;;;17.00;99.90;;;;;;8350956;28;20192;-68
2022/08/16 02:44:18;;;;;;;8.40;7.53;;;16.90;99.90;;;;;;8350704;28;20267;-68
2022/08/16 02:48:19;;;;;;;9.07;6.40;;;16.90;99.90;;;;;;8349805;28;20188;-68
2022/08/16 02:52:20;;;;;;;7.03;6.33;;;16.90;99.90;;;;;;8348678;28;20185;-68
2022/08/16 02:56:21;;;;;;;7.10;6.50;;;16.80;99.90;;;;;;8350043;28;21122;-68
2022/08/16 03:00:22;;;;;;;7.33;6.63;;;16.70;99.90;;;;;;8352296;28;20227;-68
2022/08/16 03:04:24;;;;;;;6.33;5.63;;;16.60;99.90;;;;;;8351832;28;20648;-68
2022/08/16 03:08:24;;;;;;;6.20;4.87;;;16.40;99.90;;;;;;8348929;28;20212;-68
2022/08/16 03:12:26;;;;;;;6.53;5.30;;;16.20;99.90;;;;;;8367108;28;20210;-68
2022/08/16 03:16:26;;;;;;;5.93;5.23;;;16.10;99.90;;;;;;8357857;28;20221;-68
2022/08/16 03:20:28;;;;;;;8.37;7.13;;;15.90;99.90;;;;;;8351719;28;20185;-70
2022/08/16 03:24:29;;;;;;;9.73;7.93;;;15.80;99.90;;;;;;8349648;28;20197;-69
2022/08/16 03:28:29;;;;;;;10.90;9.63;;;15.80;99.90;;;;;;8351947;28;20190;-68
2022/08/16 03:32:30;;;;;;;9.67;8.53;;;15.80;99.90;;;;;;8351746;28;20197;-68
2022/08/16 03:36:31;;;;;;;16.40;9.80;;;15.80;99.90;;;;;;8346181;28;20263;-68
2022/08/16 03:40:34;;;;;;;12.20;9.00;;;15.70;99.90;;;;;;8348396;28;20182;-68
2022/08/16 03:44:35;;;;;;;13.13;9.80;;;15.70;99.90;;;;;;8360053;28;20322;-68
2022/08/16 03:48:37;;;;;;;9.53;8.47;;;15.70;99.90;;;;;;8346761;28;20194;-68
2022/08/16 03:52:38;;;;;;;9.27;8.37;;;15.70;99.90;;;;;;8345993;28;20197;-68
2022/08/16 03:56:40;;;;;;;8.47;7.57;;;15.70;99.90;;;;;;8349941;28;20248;-68
2022/08/16 04:00:41;;;;;;;10.27;9.27;;;15.80;99.90;;;;;;8349134;28;20228;-68
2022/08/16 04:04:42;;;;;;;10.80;9.50;;;15.90;99.90;;;;;;8348512;28;20190;-68
2022/08/16 04:08:43;;;;;;;11.67;10.57;;;16.10;99.90;;;;;;8350685;28;20255;-67
2022/08/16 04:12:45;;;;;;;10.37;9.33;;;16.40;99.90;;;;;;8346232;28;20320;-67
2022/08/16 04:16:46;;;;;;;10.20;9.10;;;16.60;99.90;;;;;;8349247;28;20220;-67
2022/08/16 04:20:50;;;;;;;8.97;8.17;;;17.00;99.90;;;;;;8348488;28;20181;-67
2022/08/16 04:24:51;;;;;;;9.63;8.67;;;17.60;99.90;;;;;;8365619;28;20194;-67
2022/08/16 04:28:52;;;;;;;8.43;6.47;;;18.10;99.90;;;;;;8348082;28;20211;-68
2022/08/16 04:32:53;;;;;;;7.67;6.97;;;18.60;99.90;;;;;;8349602;28;20196;-67
2022/08/16 04:36:55;;;;;;;7.50;6.70;;;19.10;99.90;;;;;;8358546;28;20233;-67
2022/08/16 04:40:56;;;;;;;7.37;6.47;;;19.60;99.90;;;;;;8346343;28;20182;-68
2022/08/16 04:44:57;;;;;;;7.30;6.60;;;20.00;99.90;;;;;;8350101;28;20182;-67
2022/08/16 04:48:58;;;;;;;7.13;5.90;;;19.90;1.00;;;;;;8347411;28;20190;-67
2022/08/16 04:52:59;;;;;;;7.20;6.10;;;19.90;99.90;;;;;;8346833;28;20276;-67
2022/08/16 04:57:00;;;;;;;7.70;6.47;;;20.10;99.90;;;;;;8365879;28;20214;-67
2022/08/16 05:01:01;;;;;;;6.20;5.70;;;20.00;99.90;;;;;;8354117;28;20182;-68
2022/08/16 05:05:02;;;;;;;6.50;5.90;;;19.90;99.90;;;;;;8351706;28;20178;-68
2022/08/16 05:09:03;;;;;;;7.63;6.20;;;19.80;1.00;;;;;;8354163;28;20204;-68
2022/08/16 05:13:06;;;;;;;6.83;6.13;;;19.80;99.90;;;;;;8352269;28;20217;-67
2022/08/16 05:17:07;;;;;;;7.90;7.17;;;19.80;99.90;;;;;;8354600;28;20220;-68
2022/08/16 05:21:08;;;;;;;7.53;6.40;;;19.80;1.00;;;;;;8353768;28;20181;-69
2022/08/16 05:25:11;;;;;;;7.93;6.53;;;19.80;99.90;;;;;;8356645;28;20197;-68
2022/08/16 05:29:12;;;;;;;7.37;6.50;;;19.90;1.00;;;;;;8346811;28;20196;-68
2022/08/16 05:33:12;;;;;;;7.80;6.80;;;19.90;99.90;;;;;;8351151;28;20280;-68
2022/08/16 05:37:13;;;;;;;7.00;6.30;;;20.00;1.00;;;;;;8343732;28;20352;-68
2022/08/16 05:41:15;;;;;;;9.30;6.63;;;20.10;1.00;;;;;;8384239;28;20247;-68
2022/08/16 05:45:16;;;;;;;6.77;6.17;;;20.30;1.00;;;;;;8352227;28;20190;-68
2022/08/16 05:49:17;;;;;;;7.07;6.33;;;20.40;28.80;;;;;;8351530;28;20188;-68
2022/08/16 05:53:17;;;;;;;7.57;5.83;;;20.50;1.00;;;;;;8353171;28;20182;-68
2022/08/16 05:57:18;;;;;;;7.37;6.20;;;20.60;1.00;;;;;;8355104;28;20241;-68
2022/08/16 06:01:19;;;;;;;5.80;5.30;;;20.80;1.00;;;;;;8367690;28;20190;-69
2022/08/16 06:05:20;;;;;;;8.87;6.30;;;20.90;99.90;;;;;;8351036;28;20305;-68
2022/08/16 06:09:21;;;;;;;6.30;5.63;;;21.10;99.90;;;;;;8370516;28;20271;-68
2022/08/16 06:13:21;;;;;;;6.30;5.70;;;21.30;99.90;;;;;;8353501;28;20229;-68
2022/08/16 06:17:23;;;;;;;7.57;6.10;;;21.50;36.20;;;;;;8352472;28;20220;-68
2022/08/16 06:21:24;;;;;;;6.57;5.90;;;21.60;1.00;;;;;;8351316;28;20186;-68
2022/08/16 06:25:26;;;;;;;6.70;6.10;;;21.70;1.00;;;;;;8351258;28;20201;-68
2022/08/16 06:29:27;;;;;;;8.20;5.90;;;21.90;1.00;;;;;;8365615;28;20197;-68
2022/08/16 06:33:28;;;;;;;6.67;6.07;;;22.00;99.90;;;;;;8350504;28;20210;-68
2022/08/16 06:37:29;;;;;;;6.10;5.60;;;22.10;99.90;;;;;;8351306;28;20219;-69
2022/08/16 06:41:30;;;;;;;7.33;5.80;;;22.30;99.90;;;;;;8349857;28;20185;-66
2022/08/16 06:45:31;;;;;;;6.73;6.03;;;22.40;99.90;;;;;;8343333;28;20189;-67
2022/08/16 06:49:32;;;;;;;7.50;6.73;;;22.60;99.90;;;;;;8349278;28;20193;-67
2022/08/16 06:53:34;;;;;;;6.30;5.70;;;22.70;99.90;;;;;;8350225;28;20264;-67
2022/08/16 06:57:35;;;;;;;6.50;5.80;;;22.80;99.90;;;;;;8349466;28;20289;-67
2022/08/16 07:01:36;;;;;;;6.03;5.20;;;22.80;99.90;;;;;;8351310;28;20240;-67
2022/08/16 07:05:36;;;;;;;5.87;5.37;;;22.90;8.80;;;;;;8348391;28;20185;-66
2022/08/16 07:09:38;;;;;;;5.43;4.93;;;22.90;1.00;;;;;;8349177;28;20194;-66
2022/08/16 07:13:39;;;;;;;6.67;5.97;;;23.00;1.00;;;;;;8351135;28;20225;-66
2022/08/16 07:17:40;;;;;;;5.40;4.90;;;23.00;1.00;;;;;;8350952;28;20194;-67
2022/08/16 07:21:41;;;;;;;6.33;4.87;;;23.20;1.00;;;;;;8350209;28;20186;-67
2022/08/16 07:25:42;;;;;;;6.13;5.63;;;23.40;1.00;;;;;;8348842;28;20185;-67
2022/08/16 07:29:43;;;;;;;7.03;5.40;;;23.50;1.00;;;;;;8350685;28;20182;-67
2022/08/16 07:33:44;;;;;;;5.60;5.10;;;23.60;99.90;;;;;;8351408;28;20189;-67
2022/08/16 07:37:45;;;;;;;7.37;5.37;;;23.80;1.00;;;;;;8349686;28;20178;-67
2022/08/16 07:41:46;;;;;;;7.23;5.80;;;24.00;99.90;;;;;;8347744;28;20186;-67
2022/08/16 07:45:47;;;;;;;10.17;5.50;;;24.30;99.90;;;;;;8349156;28;20188;-67
2022/08/16 07:49:47;;;;;;;6.57;4.83;;;24.30;99.90;;;;;;8352830;28;20288;-67
2022/08/16 07:53:50;;;;;;;6.03;5.17;;;24.30;99.90;;;;;;8348326;28;20340;-66
2022/08/16 07:57:51;;;;;;;5.67;5.17;;;24.40;99.90;;;;;;8347638;28;20247;-68
2022/08/16 08:01:54;;;;;;;5.50;5.00;;;24.40;99.90;;;;;;8348654;28;20181;-66
2022/08/16 08:05:54;;;;;;;5.73;5.10;;;24.50;99.90;;;;;;8348043;28;20217;-66
2022/08/16 08:09:56;;;;;;;7.47;5.17;;;24.50;99.90;;;;;;8348593;28;20236;-67
2022/08/16 08:14:01;;;;;;;5.30;4.80;;;24.70;99.90;;;;;;8348130;28;20210;-66
2022/08/16 08:18:02;;;;;;;6.43;5.10;;;24.70;99.90;;;;;;8382420;28;20232;-66
2022/08/16 08:22:04;;;;;;;6.17;5.20;;;24.80;99.90;;;;;;8364659;28;20219;-67
2022/08/16 08:26:05;;;;;;;7.87;5.37;;;25.00;99.90;;;;;;8348812;28;20182;-67
2022/08/16 08:30:06;;;;;;;5.70;5.10;;;25.10;99.90;;;;;;8347171;28;20182;-69
2022/08/16 08:34:07;;;;;;;6.97;5.20;;;25.20;99.90;;;;;;8372177;28;20209;-68
2022/08/16 08:38:08;;;;;;;5.87;5.33;;;25.30;99.90;;;;;;8354025;28;20185;-66
2022/08/16 08:42:09;;;;;;;7.35;5.20;;;25.50;99.90;;;;;;8352243;28;20221;-66
2022/08/16 08:46:10;;;;;;;5.53;5.03;;;25.70;99.90;;;;;;8353252;28;20182;-66
2022/08/16 08:50:11;;;;;;;6.72;4.80;;;25.80;92.70;;;;;;8353259;28;20181;-65
2022/08/16 08:54:15;;;;;;;4.90;4.43;;;25.90;99.90;;;;;;8353884;28;20284;-66
2022/08/16 08:58:15;;;;;;;7.43;4.75;;;26.00;98.30;;;;;;8365350;28;20210;-67
2022/08/16 09:02:19;;;;;;;5.90;4.80;;;26.10;91.50;;;;;;8354438;28;20181;-65
2022/08/16 09:06:20;;;;;;;5.72;5.07;;;26.30;67.30;;;;;;8356159;28;20224;-67
2022/08/16 09:10:21;;;;;;;5.15;4.65;;;26.40;71.10;;;;;;8354107;28;20185;-67
2022/08/16 09:14:23;;;;;;;5.38;4.88;;;26.50;45.60;;;;;;8357762;28;20224;-66
2022/08/16 09:18:24;;;;;;;5.85;4.75;;;26.80;51.40;;;;;;8363615;28;20182;-66
2022/08/16 09:22:27;;;;;;;5.45;4.43;;;26.90;25.30;;;;;;8354421;28;20185;-66
2022/08/16 09:26:28;;;;;;;7.20;4.65;;;27.10;25.10;;;;;;8355535;28;21273;-66
2022/08/16 09:30:29;;;;;;;5.93;4.82;;;27.00;26.00;;;;;;8355260;28;20190;-66
2022/08/16 09:34:29;;;;;;;6.05;4.63;;;27.20;12.00;;;;;;8351979;28;20213;-67
2022/08/16 09:38:30;;;;;;;5.35;4.93;;;27.40;6.30;;;;;;8351710;28;20178;-66
2022/08/16 09:42:31;;;;;;;5.32;4.70;;;27.50;7.30;;;;;;8352106;28;20273;-67
2022/08/16 09:46:35;;;;;;;5.88;4.57;;;27.80;1.00;;;;;;8351714;28;20200;-64
2022/08/16 09:50:40;;;;;;;6.20;5.00;;;27.90;1.00;;;;;;8342455;28;20182;-65
2022/08/16 09:54:41;;;;;;;5.10;4.68;;;27.90;1.00;;;;;;8351270;28;20213;-65
2022/08/16 09:58:42;;;;;;;6.57;4.93;;;28.10;1.00;;;;;;8353142;28;20193;-67
2022/08/16 10:02:43;;;;;;;6.07;4.70;;;28.30;1.00;;;;;;8354340;28;20265;-67
2022/08/16 10:06:44;;;;;;;5.07;4.68;;;28.50;1.00;;;;;;8353581;28;20196;-66
2022/08/16 10:13:10;;;;;;;5.47;4.90;;;28.80;1.00;;;;;;8352319;28;20193;-66
2022/08/16 10:15:07;;;;;;;6.40;4.68;;;28.90;1.00;;;;;;8351887;28;20218;-66
2022/08/16 10:19:08;;;;;;;6.25;4.97;;;28.80;1.00;;;;;;8349868;28;20185;-65
2022/08/16 10:23:14;;;;;;;6.90;4.97;;;28.50;1.00;;;;;;8351073;28;20177;-65
2022/08/16 10:27:16;;;;;;;4.93;4.30;;;28.50;1.00;;;;;;8353696;28;20190;-65
2022/08/16 10:31:17;;;;;;;7.20;5.00;;;28.80;1.00;;;;;;8352709;28;20186;-65
2022/08/16 10:35:18;;;;;;;6.00;5.40;;;29.20;1.00;;;;;;8350175;28;20232;-66
2022/08/16 10:39:19;;;;;;;5.40;4.90;;;29.30;1.00;;;;;;8350362;28;20205;-65
2022/08/16 10:43:20;;;;;;;5.78;5.28;;;29.40;1.00;;;;;;8352216;28;20382;-66
2022/08/16 10:47:21;;;;;;;6.13;5.50;;;29.20;1.00;;;;;;8353401;28;20201;-66
2022/08/16 10:51:21;;;;;;;6.10;5.30;;;29.00;1.00;;;;;;8352494;28;20567;-66
2022/08/16 10:55:22;;;;;;;6.32;5.03;;;29.10;1.00;;;;;;8350806;28;20205;-65
2022/08/16 10:59:24;;;;;;;58.33;10.95;;;29.20;1.00;;;;;;8348592;28;20182;-66
2022/08/16 11:03:27;;;;;;;28.27;8.27;;;29.20;1.00;;;;;;8348358;28;20458;-66
2022/08/16 11:07:28;;;;;;;13.50;6.32;;;29.00;1.00;;;;;;8349268;28;20181;-66
2022/08/16 11:11:28;;;;;;;6.45;5.20;;;29.20;1.00;;;;;;8351180;28;20202;-66
2022/08/16 11:15:29;;;;;;;6.68;5.53;;;29.40;1.00;;;;;;8351407;28;20216;-65
2022/08/16 11:19:31;;;;;;;8.23;4.72;;;29.30;1.00;;;;;;8350508;28;20288;-66
2022/08/16 11:23:32;;;;;;;5.82;5.10;;;29.00;1.00;;;;;;8355432;28;20244;-65
2022/08/16 11:27:33;;;;;;;24.05;7.60;;;28.80;1.00;;;;;;8383156;28;20186;-66
2022/08/16 11:31:34;;;;;;;5.43;4.93;;;28.70;1.00;;;;;;8339384;28;20186;-65
2022/08/16 11:35:36;;;;;;;5.68;5.13;;;29.10;1.00;;;;;;8352390;28;20202;-65
2022/08/16 11:39:37;;;;;;;5.53;5.03;;;29.00;1.00;;;;;;8351289;28;20174;-65
2022/08/16 11:43:40;;;;;;;7.55;5.35;;;28.80;1.00;;;;;;8349085;28;20336;-65
2022/08/16 11:47:41;;;;;;;7.97;5.45;;;29.00;1.00;;;;;;8348609;28;20174;-65
2022/08/16 11:51:44;;;;;;;188.88;23.70;;;29.00;1.00;;;;;;8352751;28;20185;-64
2022/08/16 11:55:44;;;;;;;19.00;6.88;;;29.00;1.00;;;;;;8348733;28;20213;-65
2022/08/16 11:59:45;;;;;;;20.73;6.57;;;29.00;1.00;;;;;;8349706;28;20288;-65
2022/08/16 12:03:46;;;;;;;45.35;13.52;;;29.10;1.00;;;;;;8350001;28;20261;-65
2022/08/16 12:07:47;;;;;;;6.68;6.00;;;29.40;1.00;;;;;;8350635;28;20181;-65
2022/08/16 12:11:48;;;;;;;5.28;4.78;;;29.90;1.00;;;;;;8348182;28;20198;-66
2022/08/16 12:15:49;;;;;;;5.32;4.82;;;30.20;1.00;;;;;;8352362;28;20288;-65
2022/08/16 12:19:51;;;;;;;4.72;4.35;;;30.50;1.00;;;;;;8346673;28;20202;-64
2022/08/16 12:23:52;;;;;;;5.30;4.80;;;30.80;1.00;;;;;;8347330;28;20174;-65
2022/08/16 12:27:53;;;;;;;4.80;4.40;;;30.90;1.00;;;;;;8350866;28;20273;-65
2022/08/16 12:31:54;;;;;;;6.53;4.70;;;30.90;1.00;;;;;;8361056;28;20260;-65
2022/08/16 12:35:55;;;;;;;4.70;4.30;;;30.90;1.00;;;;;;8349530;28;20222;-67
2022/08/16 12:39:56;;;;;;;4.95;4.45;;;30.90;1.00;;;;;;8350023;28;20177;-65
2022/08/16 12:43:57;;;;;;;5.13;4.60;;;31.00;1.00;;;;;;8338395;28;20200;-65
2022/08/16 12:52:21;;;;;;;4.97;4.57;;;31.30;1.00;;;;;;8345713;28;20489;-65
2022/08/16 12:56:26;;;;;;;4.97;4.40;;;31.30;1.00;;;;;;8361070;28;20332;-65
2022/08/16 13:00:29;;;;;;;4.85;4.30;;;31.40;1.00;;;;;;8347233;28;20178;-65
2022/08/16 13:04:32;;;;;;;6.65;4.32;;;31.40;1.00;;;;;;8346525;28;20182;-65
2022/08/16 13:08:33;;;;;;;4.43;3.97;;;31.70;1.00;;;;;;8355250;28;20182;-66
2022/08/16 13:12:38;;;;;;;4.38;3.97;;;31.80;1.00;;;;;;8347992;28;20257;-66
2022/08/16 13:16:41;;;;;;;4.40;4.00;;;32.20;1.00;;;;;;8360464;28;20209;-65
2022/08/16 13:20:41;;;;;;;5.60;4.25;;;32.50;1.00;;;;;;8370483;28;20190;-66
2022/08/16 13:24:42;;;;;;;4.35;3.85;;;32.60;1.00;;;;;;8351302;28;20351;-65
2022/08/16 13:28:43;;;;;;;5.40;4.15;;;32.60;1.00;;;;;;8355767;28;20224;-65
2022/08/16 13:32:44;;;;;;;4.25;3.95;;;32.40;1.00;;;;;;8349729;28;20444;-64
2022/08/16 13:36:45;;;;;;;5.07;4.13;;;32.50;1.00;;;;;;8354757;28;20209;-65
2022/08/16 13:40:47;;;;;;;4.82;4.38;;;32.80;1.00;;;;;;8350404;28;20166;-64
2022/08/16 13:44:47;;;;;;;4.38;4.07;;;33.00;1.00;;;;;;8350280;28;20182;-65
2022/08/16 13:48:48;;;;;;;5.45;3.90;;;33.30;1.00;;;;;;8353070;28;20178;-65
2022/08/16 13:52:49;;;;;;;5.68;3.67;;;33.40;1.00;;;;;;8349697;28;20185;-66
2022/08/16 13:56:50;;;;;;;4.60;4.20;;;33.40;1.00;;;;;;8351007;28;20212;-66
2022/08/16 14:00:51;;;;;;;4.95;3.50;;;33.40;1.00;;;;;;8352102;28;20209;-67
2022/08/16 14:04:52;;;;;;;7.43;3.88;;;33.50;1.00;;;;;;8353458;28;20183;-65
2022/08/16 14:08:53;;;;;;;4.00;3.70;;;33.60;1.00;;;;;;8351171;28;20186;-66
2022/08/16 14:12:54;;;;;;;4.18;3.63;;;33.40;1.00;;;;;;8347641;28;20267;-66
2022/08/16 14:17:01;;;;;;;6.63;3.38;;;33.30;1.00;;;;;;8349659;28;20209;-66
2022/08/16 14:21:02;;;;;;;4.20;3.17;;;33.10;1.00;;;;;;8349116;28;20189;-65
2022/08/16 14:25:07;;;;;;;5.20;3.58;;;32.60;1.00;;;;;;8352788;28;20269;-65
2022/08/16 14:29:09;;;;;;;4.15;3.30;;;32.20;1.00;;;;;;8350688;28;20185;-64
2022/08/16 14:33:10;;;;;;;4.80;3.17;;;32.30;1.00;;;;;;8349659;28;20190;-66
2022/08/16 14:37:11;;;;;;;3.65;3.25;;;32.50;1.00;;;;;;8353971;28;20240;-66
2022/08/16 14:41:12;;;;;;;3.50;3.20;;;32.50;1.00;;;;;;8353220;28;20247;-65
2022/08/16 14:45:17;;;;;;;3.25;2.95;;;32.60;1.00;;;;;;8350637;28;20308;-66
2022/08/16 14:49:18;;;;;;;5.18;2.85;;;32.60;1.00;;;;;;8353693;28;20191;-65
2022/08/16 14:53:19;;;;;;;6.10;3.05;;;32.40;1.00;;;;;;8349944;28;20190;-66
2022/08/16 14:57:22;;;;;;;3.85;2.90;;;32.40;1.00;;;;;;8349255;28;20240;-67
2022/08/16 15:01:22;;;;;;;4.47;3.35;;;32.50;1.00;;;;;;8346222;28;20182;-65
2022/08/16 15:05:27;;;;;;;3.30;3.03;;;32.50;1.00;;;;;;8351092;28;20212;-66
2022/08/16 15:09:28;;;;;;;3.53;3.10;;;32.50;1.00;;;;;;8350738;28;20178;-65
2022/08/16 15:13:28;;;;;;;3.28;2.97;;;32.40;1.00;;;;;;8353794;28;20249;-66
2022/08/16 15:17:29;;;;;;;3.00;2.70;;;32.40;1.00;;;;;;8349950;28;20201;-66
2022/08/16 15:21:31;;;;;;;4.40;3.30;;;32.40;1.00;;;;;;8352892;28;20212;-68
2022/08/16 15:25:38;;;;;;;4.25;2.97;;;32.40;1.00;;;;;;8350067;28;20190;-66
2022/08/16 15:29:39;;;;;;;6.78;3.53;;;32.30;1.00;;;;;;8354861;28;20189;-65
2022/08/16 15:33:47;;;;;;;5.93;3.00;;;32.20;1.00;;;;;;8348509;28;20261;-69
2022/08/16 15:37:49;;;;;;;3.42;2.88;;;32.20;1.00;;;;;;8357140;28;20212;-66
2022/08/16 15:42:04;;;;;;;4.07;2.90;;;32.20;1.00;;;;;;8347779;28;20189;-66
2022/08/16 15:46:23;;;;;;;2.70;2.50;;;32.20;1.00;;;;;;8356406;28;20182;-66
2022/08/16 15:50:23;;;;;;;3.70;2.80;;;32.00;1.00;;;;;;8348669;28;20192;-66
2022/08/16 15:54:27;;;;;;;3.00;2.70;;;32.00;1.00;;;;;;8350926;28;20193;-66
2022/08/16 15:58:29;;;;;;;3.25;2.95;;;32.00;1.00;;;;;;8340857;28;20190;-66
2022/08/16 16:02:32;;;;;;;4.15;3.22;;;32.00;1.00;;;;;;8352276;28;20208;-66
2022/08/16 16:06:33;;;;;;;4.82;2.90;;;31.80;1.00;;;;;;8358859;28;20186;-65
2022/08/16 16:10:36;;;;;;;3.55;3.03;;;31.70;1.00;;;;;;8347523;28;20738;-66
2022/08/16 16:14:36;;;;;;;6.68;3.00;;;31.60;1.00;;;;;;8347476;28;20221;-67
2022/08/16 16:18:38;;;;;;;4.05;3.13;;;31.60;1.00;;;;;;8344788;28;20185;-66
2022/08/16 16:22:38;;;;;;;3.08;2.78;;;31.50;1.00;;;;;;8348299;28;20173;-65
2022/08/16 16:26:39;;;;;;;6.63;2.97;;;31.50;1.00;;;;;;8346526;28;20231;-66
2022/08/16 16:30:41;;;;;;;2.97;2.60;;;31.60;1.00;;;;;;8348761;28;20186;-65
2022/08/16 16:34:42;;;;;;;2.60;2.40;;;31.50;1.00;;;;;;8345919;28;20211;-66
2022/08/16 16:38:46;;;;;;;4.45;2.90;;;31.40;1.00;;;;;;8350471;28;20182;-66
2022/08/16 16:42:49;;;;;;;3.25;2.90;;;31.30;1.00;;;;;;8346510;28;20185;-66
2022/08/16 16:46:50;;;;;;;5.32;2.83;;;31.10;1.00;;;;;;8350160;28;20236;-67
2022/08/16 16:50:52;;;;;;;2.90;2.63;;;30.90;1.00;;;;;;8345661;28;20182;-66
2022/08/16 16:54:53;;;;;;;2.92;2.70;;;30.80;1.00;;;;;;8354302;28;20263;-66
2022/08/16 16:58:57;;;;;;;3.13;2.67;;;30.70;1.00;;;;;;8368825;28;20269;-65
2022/08/16 17:02:59;;;;;;;3.60;2.45;;;30.60;1.00;;;;;;8352250;28;20182;-68
2022/08/16 17:07:00;;;;;;;2.65;2.45;;;30.50;1.00;;;;;;8351611;28;20178;-66
2022/08/16 17:11:01;;;;;;;3.25;2.50;;;30.40;1.00;;;;;;8355085;28;20406;-66
2022/08/16 17:15:04;;;;;;;2.80;2.58;;;30.30;1.00;;;;;;8352111;28;20213;-65
2022/08/16 17:19:07;;;;;;;2.50;2.30;;;30.10;1.00;;;;;;8349973;28;20241;-65
2022/08/16 17:23:08;;;;;;;2.80;2.60;;;29.90;1.00;;;;;;8366622;28;20264;-67
2022/08/16 17:27:09;;;;;;;3.47;2.25;;;29.60;1.00;;;;;;8354108;28;20182;-65
2022/08/16 17:31:11;;;;;;;3.30;3.00;;;29.40;1.00;;;;;;8355759;28;20244;-67
2022/08/16 17:35:14;;;;;;;3.53;2.80;;;29.00;1.00;;;;;;8348833;28;20272;-67
2022/08/16 17:39:15;;;;;;;3.10;2.80;;;28.70;1.00;;;;;;8351218;28;20385;-67
2022/08/16 17:43:20;;;;;;;3.38;3.08;;;28.60;1.00;;;;;;8351841;28;20190;-67
2022/08/16 17:47:21;;;;;;;3.78;3.10;;;28.50;1.00;;;;;;8352862;28;20197;-66
2022/08/16 17:51:24;;;;;;;2.97;2.72;;;28.40;1.00;;;;;;8349310;28;20208;-66
2022/08/16 17:55:33;;;;;;;3.15;2.95;;;28.10;1.00;;;;;;8384048;28;20206;-66
2022/08/16 17:59:36;;;;;;;3.15;2.85;;;27.90;1.00;;;;;;8352508;28;20251;-67
2022/08/16 18:03:40;;;;;;;3.28;2.97;;;27.50;1.00;;;;;;8349526;28;20179;-67
2022/08/16 18:07:42;;;;;;;5.00;2.85;;;27.10;1.00;;;;;;8354469;28;20186;-66
2022/08/16 18:11:42;;;;;;;8.13;4.25;;;26.80;1.00;;;;;;8351586;28;20205;-66
2022/08/16 18:15:43;;;;;;;5.18;3.80;;;26.40;1.70;;;;;;8347887;28;20304;-66
2022/08/16 18:19:44;;;;;;;5.40;4.70;;;26.00;23.30;;;;;;8352767;28;20189;-67
2022/08/16 18:23:45;;;;;;;4.47;4.10;;;25.80;8.60;;;;;;8356592;28;20217;-66
2022/08/16 18:27:46;;;;;;;4.30;3.90;;;25.60;73.10;;;;;;8356281;28;20193;-67
2022/08/16 18:31:49;;;;;;;4.43;4.03;;;25.30;99.90;;;;;;8353585;28;20251;-67
2022/08/16 18:35:51;;;;;;;4.10;3.73;;;24.90;99.90;;;;;;8352491;28;20198;-67
2022/08/16 18:39:52;;;;;;;5.90;4.73;;;24.60;99.90;;;;;;8353372;28;20182;-67
2022/08/16 18:43:53;;;;;;;5.20;4.67;;;24.40;99.90;;;;;;8351231;28;20185;-67
2022/08/16 18:47:54;;;;;;;4.77;4.17;;;24.20;99.90;;;;;;8345523;28;20189;-67
2022/08/16 18:51:59;;;;;;;4.53;4.13;;;24.00;99.90;;;;;;8346143;28;20189;-67
2022/08/16 18:56:01;;;;;;;5.27;4.67;;;23.80;99.90;;;;;;8348892;28;20241;-67
2022/08/16 19:00:06;;;;;;;5.83;4.60;;;23.60;99.90;;;;;;8352354;28;20232;-67
2022/08/16 19:04:07;;;;;;;7.47;5.20;;;23.30;99.90;;;;;;8356199;28;20253;-68
2022/08/16 19:08:13;;;;;;;6.37;5.73;;;23.00;99.90;;;;;;8352260;28;20186;-66
2022/08/16 19:12:14;;;;;;;9.67;7.30;;;22.90;99.90;;;;;;8347117;28;20217;-67
2022/08/16 19:16:15;;;;;;;7.30;6.60;;;22.70;99.90;;;;;;8337218;28;20255;-67
2022/08/16 19:20:19;;;;;;;7.50;6.63;;;22.50;99.90;;;;;;8352062;28;20196;-67
2022/08/16 19:24:19;;;;;;;10.40;7.57;;;22.40;1.00;;;;;;8352820;28;20182;-66
2022/08/16 19:28:29;;;;;;;17.63;15.00;;;22.30;1.00;;;;;;8354296;28;20273;-67
2022/08/16 19:32:31;;;;;;;16.37;14.67;;;22.10;1.00;;;;;;8353928;28;20186;-67
2022/08/16 19:36:38;;;;;;;10.40;9.27;;;22.00;1.00;;;;;;8354055;28;20476;-67
2022/08/16 19:40:39;;;;;;;7.77;6.97;;;21.80;1.00;;;;;;8354025;28;20178;-67
2022/08/16 19:44:41;;;;;;;6.47;5.77;;;21.70;1.00;;;;;;8354215;28;20189;-67
2022/08/16 19:48:43;;;;;;;5.43;4.93;;;21.70;1.00;;;;;;8352121;28;20610;-67
2022/08/16 19:52:46;;;;;;;6.17;5.10;;;21.60;1.00;;;;;;8354120;28;20185;-66
2022/08/16 19:56:47;;;;;;;5.30;4.90;;;21.50;1.00;;;;;;8357597;28;20205;-67
2022/08/16 20:00:49;;;;;;;5.70;5.10;;;21.40;1.00;;;;;;8355844;28;20232;-67
2022/08/16 20:04:52;;;;;;;5.50;5.00;;;21.20;15.40;;;;;;8355307;28;20181;-68
2022/08/16 20:08:53;;;;;;;6.13;5.10;;;21.10;40.80;;;;;;8383152;28;20178;-67
2022/08/16 20:12:58;;;;;;;5.33;4.83;;;21.00;90.60;;;;;;8345988;28;20201;-67
2022/08/16 20:16:59;;;;;;;5.47;4.97;;;20.90;99.90;;;;;;8366572;28;20255;-67
2022/08/16 20:21:00;;;;;;;6.47;5.33;;;20.80;99.90;;;;;;8351194;28;20209;-68
2022/08/16 20:25:05;;;;;;;5.87;5.37;;;20.70;99.90;;;;;;8350322;28;20184;-67
2022/08/16 20:29:06;;;;;;;6.30;5.70;;;20.60;99.90;;;;;;8352540;28;20203;-71
2022/08/16 20:33:12;;;;;;;5.80;5.20;;;20.40;99.90;;;;;;8353154;28;20295;-67
2022/08/16 20:37:15;;;;;;;5.73;5.23;;;20.30;99.90;;;;;;8351926;28;20218;-67
2022/08/16 20:41:17;;;;;;;6.10;5.27;;;20.20;99.90;;;;;;8349794;28;20188;-67
2022/08/16 20:45:20;;;;;;;5.93;5.37;;;20.00;99.90;;;;;;8353175;28;20201;-67
2022/08/16 20:49:21;;;;;;;5.97;5.47;;;19.90;99.90;;;;;;8349913;28;20186;-67
2022/08/16 20:53:22;;;;;;;5.50;5.00;;;19.90;1.00;;;;;;8355136;28;20220;-68
2022/08/16 20:57:23;;;;;;;5.70;5.20;;;19.80;1.00;;;;;;8346459;28;20550;-67
2022/08/16 21:01:24;;;;;;;8.10;6.23;;;19.70;1.00;;;;;;8347810;28;20182;-67
2022/08/16 21:05:26;;;;;;;7.17;5.97;;;19.60;1.00;;;;;;8356854;28;20267;-77
2022/08/16 21:09:32;;;;;;;6.73;6.13;;;19.60;1.00;;;;;;8353627;28;20181;-68